createdAt,value
2023-03-16T00:00:51.629Z,0.80
2023-03-16T00:03:41.277Z,0.90
2023-03-16T00:06:29.544Z,1.00
2023-03-16T00:09:17.742Z,0.90
2023-03-16T00:12:06.174Z,1.17
2023-03-16T00:14:54.977Z,1.10
2023-03-16T00:17:48.458Z,1.13
2023-03-16T00:20:37.999Z,0.77
2023-03-16T00:23:28.213Z,1.00
2023-03-16T00:26:16.508Z,0.90
2023-03-16T00:29:04.881Z,1.00
2023-03-16T00:31:53.112Z,0.93
2023-03-16T00:34:41.523Z,1.10
2023-03-16T00:37:33.025Z,0.80
2023-03-16T00:40:21.422Z,1.17
2023-03-16T00:43:09.771Z,1.03
2023-03-16T00:46:06.824Z,1.00
2023-03-16T00:48:55.224Z,1.03
2023-03-16T00:51:46.341Z,1.00
2023-03-16T00:54:35.983Z,1.10
2023-03-16T00:57:26.019Z,1.17
2023-03-16T01:00:17.285Z,1.00
2023-03-16T01:03:05.642Z,1.10
2023-03-16T01:05:54.031Z,1.10
2023-03-16T01:08:43.083Z,1.00
2023-03-16T01:11:34.644Z,0.87
2023-03-16T01:14:23.191Z,1.13
2023-03-16T01:17:14.077Z,0.90
2023-03-16T01:20:02.517Z,0.77
2023-03-16T01:22:51.310Z,1.20
2023-03-16T01:25:39.498Z,1.10
2023-03-16T01:28:31.928Z,1.10
2023-03-16T01:31:20.168Z,1.00
2023-03-16T01:34:08.545Z,0.80
2023-03-16T01:36:57.406Z,1.30
2023-03-16T01:39:45.658Z,1.03
2023-03-16T01:42:33.992Z,1.00
2023-03-16T01:45:59.674Z,1.00
2023-03-16T01:48:55.472Z,0.93
2023-03-16T01:51:46.475Z,1.00
2023-03-16T01:54:38.205Z,1.13
2023-03-16T01:57:30.622Z,1.30
2023-03-16T02:00:23.919Z,1.10
2023-03-16T02:03:15.179Z,1.17
2023-03-16T02:06:11.008Z,1.10
2023-03-16T02:08:59.869Z,1.00
2023-03-16T02:11:48.478Z,1.10
2023-03-16T02:14:36.774Z,1.00
2023-03-16T02:17:27.182Z,0.90
2023-03-16T02:20:28.152Z,1.30
2023-03-16T02:23:21.286Z,1.00
2023-03-16T02:26:15.492Z,0.97
2023-03-16T02:29:17.145Z,1.10
2023-03-16T02:32:07.225Z,0.90
2023-03-16T02:34:57.716Z,0.93
2023-03-16T02:37:46.083Z,0.97
2023-03-16T02:40:36.533Z,1.27
2023-03-16T02:43:29.456Z,0.90
2023-03-16T02:46:19.017Z,1.00
2023-03-16T02:49:16.898Z,0.90
2023-03-16T02:52:05.362Z,1.07
2023-03-16T02:54:53.658Z,1.00
2023-03-16T02:57:41.890Z,1.10
2023-03-16T03:00:30.342Z,1.00
2023-03-16T03:03:18.981Z,1.10
2023-03-16T03:06:08.958Z,1.20
2023-03-16T03:08:57.310Z,0.90
2023-03-16T03:11:46.725Z,1.20
2023-03-16T03:14:38.788Z,0.90
2023-03-16T03:17:30.270Z,0.93
2023-03-16T03:20:19.879Z,1.00
2023-03-16T03:23:09.558Z,1.00
2023-03-16T03:25:59.335Z,0.80
2023-03-16T03:28:47.803Z,1.30
2023-03-16T03:31:36.645Z,0.90
2023-03-16T03:34:25.135Z,1.07
2023-03-16T03:37:13.345Z,1.00
2023-03-16T03:40:07.965Z,0.83
2023-03-16T03:42:58.274Z,0.90
2023-03-16T03:45:46.647Z,1.10
2023-03-16T03:48:34.987Z,0.93
2023-03-16T03:51:23.337Z,1.07
2023-03-16T03:54:11.750Z,0.90
2023-03-16T03:57:01.383Z,1.00
2023-03-16T03:59:49.640Z,0.93
2023-03-16T04:02:38.311Z,0.83
2023-03-16T04:05:27.603Z,0.90
2023-03-16T04:08:15.814Z,1.00
2023-03-16T04:11:04.200Z,1.00
2023-03-16T04:13:54.963Z,0.80
2023-03-16T04:16:44.285Z,1.00
2023-03-16T04:19:32.586Z,1.07
2023-03-16T04:22:23.240Z,0.90
2023-03-16T04:25:12.347Z,1.00
2023-03-16T04:28:00.573Z,1.40
2023-03-16T04:30:50.263Z,1.00
2023-03-16T04:33:40.002Z,1.40
2023-03-16T04:36:28.259Z,1.30
2023-03-16T04:39:16.425Z,0.90
2023-03-16T04:42:05.162Z,0.90
2023-03-16T04:44:53.400Z,1.10
2023-03-16T04:47:43.118Z,0.90
2023-03-16T04:50:31.371Z,1.00
2023-03-16T04:53:19.562Z,0.90
2023-03-16T04:56:10.884Z,0.97
2023-03-16T04:58:59.234Z,0.97
2023-03-16T05:01:48.701Z,1.17
2023-03-16T05:04:38.545Z,0.93
2023-03-16T05:07:26.775Z,1.13
2023-03-16T05:10:17.340Z,0.90
2023-03-16T05:13:06.031Z,1.10
2023-03-16T05:15:54.752Z,1.27
2023-03-16T05:18:42.947Z,0.93
2023-03-16T05:21:34.293Z,0.90
2023-03-16T05:24:23.420Z,1.00
2023-03-16T05:27:11.668Z,1.03
2023-03-16T05:30:01.214Z,1.00
2023-03-16T05:32:49.882Z,0.90
2023-03-16T05:35:38.896Z,1.10
2023-03-16T05:38:28.569Z,0.80
2023-03-16T05:41:18.334Z,1.10
2023-03-16T05:44:06.977Z,1.20
2023-03-16T05:46:55.260Z,1.00
2023-03-16T05:49:43.520Z,1.10
2023-03-16T05:52:31.984Z,1.00
2023-03-16T05:55:21.765Z,1.10
2023-03-16T05:58:09.964Z,1.00
2023-03-16T06:01:01.318Z,0.90
2023-03-16T06:03:50.053Z,1.07
2023-03-16T06:06:38.566Z,1.20
2023-03-16T06:09:26.847Z,1.02
2023-03-16T06:12:16.502Z,1.07
2023-03-16T06:15:07.395Z,1.20
2023-03-16T06:17:55.586Z,0.90
2023-03-16T06:20:44.010Z,1.00
2023-03-16T06:23:32.246Z,0.93
2023-03-16T06:26:20.507Z,1.20
2023-03-16T06:29:10.181Z,1.23
2023-03-16T06:31:58.422Z,1.10
2023-03-16T06:34:46.771Z,1.37
2023-03-16T06:37:35.010Z,1.10
2023-03-16T06:40:23.267Z,1.33
2023-03-16T06:43:12.140Z,1.03
2023-03-16T06:46:03.338Z,1.30
2023-03-16T06:48:51.642Z,1.20
2023-03-16T06:51:39.894Z,1.30
2023-03-16T06:54:28.130Z,1.40
2023-03-16T06:57:16.499Z,1.23
2023-03-16T07:00:05.566Z,0.90
2023-03-16T07:02:55.091Z,1.40
2023-03-16T07:05:43.693Z,1.20
2023-03-16T07:08:31.881Z,1.20
2023-03-16T07:11:20.227Z,1.30
2023-03-16T07:14:08.455Z,1.10
2023-03-16T07:16:57.022Z,1.10
2023-03-16T07:19:46.723Z,1.17
2023-03-16T07:22:34.930Z,1.30
2023-03-16T07:25:23.192Z,1.37
2023-03-16T07:28:11.749Z,1.17
2023-03-16T07:31:03.715Z,1.30
2023-03-16T07:33:52.338Z,1.10
2023-03-16T07:36:41.958Z,1.23
2023-03-16T07:39:30.405Z,1.10
2023-03-16T07:42:19.874Z,1.17
2023-03-16T07:45:10.070Z,1.23
2023-03-16T07:47:58.315Z,1.20
2023-03-16T07:50:48.436Z,1.50
2023-03-16T07:53:38.015Z,1.10
2023-03-16T07:56:28.318Z,1.40
2023-03-16T07:59:20.451Z,1.23
2023-03-16T08:02:13.654Z,1.10
2023-03-16T08:05:01.890Z,1.33
2023-03-16T08:07:51.028Z,1.10
2023-03-16T08:10:41.766Z,1.20
2023-03-16T08:13:30.299Z,1.30
2023-03-16T08:16:21.484Z,1.17
2023-03-16T08:19:11.575Z,1.17
2023-03-16T08:22:02.092Z,1.17
2023-03-16T08:24:50.607Z,1.43
2023-03-16T08:27:41.911Z,1.10
2023-03-16T08:30:31.080Z,1.00
2023-03-16T08:33:22.982Z,1.20
2023-03-16T08:36:13.764Z,1.10
2023-03-16T08:39:07.046Z,1.10
2023-03-16T08:41:56.763Z,0.90
2023-03-16T08:44:47.828Z,1.10
2023-03-16T08:47:36.100Z,1.10
2023-03-16T08:50:24.471Z,0.97
2023-03-16T08:53:14.521Z,0.90
2023-03-16T08:56:04.781Z,1.00
2023-03-16T08:58:53.351Z,0.90
2023-03-16T09:01:42.946Z,1.10
2023-03-16T09:04:32.646Z,1.03
2023-03-16T09:07:22.082Z,0.90
2023-03-16T09:10:13.565Z,0.90
2023-03-16T09:13:02.736Z,1.00
2023-03-16T09:15:52.245Z,0.90
2023-03-16T09:18:42.521Z,0.90
2023-03-16T09:21:31.242Z,0.93
2023-03-16T09:24:19.522Z,0.80
2023-03-16T09:27:07.834Z,1.00
2023-03-16T09:29:56.679Z,0.77
2023-03-16T09:32:45.029Z,0.90
2023-03-16T09:35:35.282Z,0.80
2023-03-16T09:38:26.407Z,0.90
2023-03-16T09:41:46.046Z,0.93
2023-03-16T09:44:44.455Z,0.80
2023-03-16T09:47:36.164Z,0.77
2023-03-16T09:50:35.276Z,0.80
2023-03-16T09:53:35.360Z,0.80
2023-03-16T09:56:30.389Z,0.90
2023-03-16T09:59:19.152Z,1.10
2023-03-16T10:02:32.062Z,0.80
2023-03-16T10:05:23.372Z,0.85
2023-03-16T10:08:16.886Z,0.73
2023-03-16T10:11:18.718Z,0.77
2023-03-16T10:14:18.953Z,0.70
2023-03-16T10:17:14.575Z,0.90
2023-03-16T10:20:09.126Z,0.80
2023-03-16T10:22:59.452Z,0.88
2023-03-16T10:25:49.377Z,0.70
2023-03-16T10:28:39.688Z,0.75
2023-03-16T10:31:29.542Z,0.80
2023-03-16T10:34:17.843Z,0.80
2023-03-16T10:37:09.245Z,0.80
2023-03-16T10:39:57.774Z,0.73
2023-03-16T10:42:46.923Z,0.82
2023-03-16T10:45:37.499Z,0.80
2023-03-16T10:48:28.466Z,0.80
2023-03-16T10:51:20.100Z,0.80
2023-03-16T10:54:16.072Z,0.60
2023-03-16T10:57:15.612Z,0.60
2023-03-16T11:00:16.035Z,0.80
2023-03-16T11:03:22.885Z,0.88
2023-03-16T11:06:22.709Z,0.68
2023-03-16T11:09:19.981Z,0.77
2023-03-16T11:12:15.567Z,0.70
2023-03-16T11:15:09.408Z,0.60
2023-03-16T11:18:02.363Z,0.80
2023-03-16T11:20:52.665Z,0.70
2023-03-16T11:23:45.852Z,0.88
2023-03-16T11:26:36.454Z,0.80
2023-03-16T11:29:29.909Z,0.90
2023-03-16T11:32:24.079Z,0.57
2023-03-16T11:35:19.565Z,0.60
2023-03-16T11:38:15.607Z,0.80
2023-03-16T11:41:07.639Z,0.60
2023-03-16T11:44:01.534Z,0.70
2023-03-16T11:46:59.058Z,0.70
2023-03-16T11:49:58.632Z,0.70
2023-03-16T11:52:57.416Z,0.70
2023-03-16T11:55:55.848Z,0.70
2023-03-16T11:59:13.215Z,0.80
2023-03-16T12:02:26.165Z,0.90
2023-03-16T12:05:45.691Z,0.70
2023-03-16T12:09:11.235Z,0.70
2023-03-16T12:12:07.061Z,0.70
2023-03-16T12:15:05.720Z,0.75
2023-03-16T12:17:58.662Z,0.70
2023-03-16T12:20:55.424Z,0.80
2023-03-16T12:23:52.607Z,0.60
2023-03-16T12:26:43.290Z,0.70
2023-03-16T12:29:41.554Z,0.60
2023-03-16T12:32:42.736Z,0.70
2023-03-16T12:35:41.422Z,0.80
2023-03-16T12:38:46.268Z,0.60
2023-03-16T12:41:42.592Z,0.60
2023-03-16T12:44:37.804Z,0.60
2023-03-16T12:47:31.429Z,0.70
2023-03-16T12:50:21.558Z,0.55
2023-03-16T12:53:09.779Z,0.50
2023-03-16T12:55:58.666Z,0.68
2023-03-16T12:58:49.430Z,0.70
2023-03-16T13:01:43.723Z,0.70
2023-03-16T13:04:34.423Z,0.70
2023-03-16T13:07:26.421Z,0.60
2023-03-16T13:10:17.042Z,0.60
2023-03-16T13:13:14.988Z,0.80
2023-03-16T13:16:09.410Z,0.77
2023-03-16T13:18:59.785Z,0.60
2023-03-16T13:21:48.097Z,0.70
2023-03-16T13:24:41.182Z,0.60
2023-03-16T13:27:34.362Z,0.60
2023-03-16T13:30:25.327Z,0.60
2023-03-16T13:33:20.745Z,0.60
2023-03-16T13:36:14.632Z,0.65
2023-03-16T13:39:06.927Z,0.80
2023-03-16T13:42:04.904Z,0.60
2023-03-16T13:44:58.035Z,0.75
2023-03-16T13:47:46.840Z,0.57
2023-03-16T13:50:36.212Z,0.80
2023-03-16T13:53:28.727Z,0.70
2023-03-16T13:56:20.418Z,0.70
2023-03-16T13:59:10.697Z,0.70
2023-03-16T14:02:02.002Z,0.70
2023-03-16T14:04:50.366Z,0.60
2023-03-16T14:07:39.807Z,0.60
2023-03-16T14:10:33.423Z,0.70
2023-03-16T14:13:32.979Z,0.70
2023-03-16T14:16:23.213Z,0.60
2023-03-16T14:19:19.247Z,0.77
2023-03-16T14:22:08.081Z,0.80
2023-03-16T14:25:00.874Z,0.70
2023-03-16T14:27:59.452Z,0.70
2023-03-16T14:30:52.738Z,0.90
2023-03-16T14:33:46.113Z,0.88
2023-03-16T14:36:38.930Z,0.70
2023-03-16T14:39:29.780Z,0.85
2023-03-16T14:42:22.588Z,0.70
2023-03-16T14:45:16.371Z,0.70
2023-03-16T14:48:08.509Z,0.80
2023-03-16T14:50:59.507Z,0.80
2023-03-16T14:53:47.805Z,0.90
2023-03-16T14:56:36.808Z,0.60
2023-03-16T14:59:25.142Z,0.70
2023-03-16T15:02:18.641Z,0.70
2023-03-16T15:05:07.651Z,0.80
2023-03-16T15:07:56.737Z,0.80
2023-03-16T15:10:46.959Z,0.80
2023-03-16T15:13:53.283Z,0.70
2023-03-16T15:16:42.543Z,0.60
2023-03-16T15:19:32.305Z,1.00
2023-03-16T15:22:27.628Z,0.80
2023-03-16T15:25:36.339Z,0.70
2023-03-16T15:28:25.716Z,0.80
2023-03-16T15:31:15.776Z,0.70
2023-03-16T15:34:04.033Z,0.70
2023-03-16T15:36:53.876Z,0.70
2023-03-16T15:39:42.301Z,0.90
2023-03-16T15:42:30.982Z,0.80
2023-03-16T15:45:21.498Z,0.70
2023-03-16T15:48:11.111Z,0.80
2023-03-16T15:51:02.404Z,0.70
2023-03-16T15:53:54.643Z,0.77
2023-03-16T15:56:53.697Z,0.70
2023-03-16T15:59:42.993Z,0.90
2023-03-16T16:02:33.122Z,0.80
2023-03-16T16:05:23.473Z,0.90
2023-03-16T16:08:12.567Z,0.90
2023-03-16T16:11:07.491Z,0.93
2023-03-16T16:13:58.135Z,0.90
2023-03-16T16:16:47.468Z,0.80
2023-03-16T16:19:35.628Z,0.90
2023-03-16T16:22:23.859Z,0.80
2023-03-16T16:25:14.732Z,1.10
2023-03-16T16:28:07.174Z,0.80
2023-03-16T16:30:56.022Z,0.80
2023-03-16T16:33:44.253Z,0.80
2023-03-16T16:36:32.543Z,0.97
2023-03-16T16:39:21.075Z,1.20
2023-03-16T16:42:17.335Z,0.80
2023-03-16T16:45:08.194Z,0.93
2023-03-16T16:47:57.023Z,0.90
2023-03-16T16:50:45.610Z,1.07
2023-03-16T16:53:34.505Z,1.00
2023-03-16T16:56:28.103Z,0.90
2023-03-16T16:59:19.097Z,1.00
2023-03-16T17:02:29.035Z,0.93
2023-03-16T17:05:20.731Z,0.80
2023-03-16T17:08:12.540Z,0.90
2023-03-16T17:11:00.752Z,1.17
2023-03-16T17:13:50.670Z,0.80
2023-03-16T17:16:39.334Z,0.80
2023-03-16T17:19:29.700Z,1.10
2023-03-16T17:22:24.456Z,1.00
2023-03-16T17:25:13.017Z,1.27
2023-03-16T17:28:01.233Z,0.90
2023-03-16T17:30:49.650Z,1.00
2023-03-16T17:33:38.297Z,1.00
2023-03-16T17:36:27.836Z,1.33
2023-03-16T17:39:21.079Z,1.03
2023-03-16T17:42:14.966Z,1.07
2023-03-16T17:45:05.021Z,0.90
2023-03-16T17:47:54.266Z,1.00
2023-03-16T17:50:42.743Z,0.93
2023-03-16T17:53:33.588Z,1.37
2023-03-16T17:56:24.804Z,1.23
2023-03-16T17:59:17.543Z,1.03
2023-03-16T18:02:25.033Z,1.10
2023-03-16T18:05:19.010Z,1.30
2023-03-16T18:08:16.138Z,1.30
2023-03-16T18:11:09.125Z,1.37
2023-03-16T18:13:57.414Z,1.20
2023-03-16T18:16:45.951Z,1.10
2023-03-16T18:19:34.326Z,1.20
2023-03-16T18:22:25.041Z,1.20
2023-03-16T18:25:28.787Z,1.30
2023-03-16T18:28:19.101Z,1.23
2023-03-16T18:31:18.498Z,1.20
2023-03-16T18:34:09.260Z,1.20
2023-03-16T18:36:59.753Z,1.10
2023-03-16T18:39:48.210Z,1.37
2023-03-16T18:42:36.370Z,1.30
2023-03-16T18:45:28.979Z,1.20
2023-03-16T18:48:24.843Z,1.30
2023-03-16T18:51:15.698Z,1.60
2023-03-16T18:54:04.871Z,1.40
2023-03-16T18:56:54.380Z,1.20
2023-03-16T18:59:42.569Z,1.20
2023-03-16T19:02:37.287Z,1.13
2023-03-16T19:05:33.807Z,1.37
2023-03-16T19:08:22.795Z,1.50
2023-03-16T19:11:13.317Z,1.27
2023-03-16T19:14:01.628Z,1.40
2023-03-16T19:16:49.982Z,1.37
2023-03-16T19:19:39.621Z,1.60
2023-03-16T19:22:28.163Z,1.20
2023-03-16T19:25:20.031Z,1.23
2023-03-16T19:28:15.432Z,1.50
2023-03-16T19:31:08.000Z,1.20
2023-03-16T19:33:58.192Z,1.17
2023-03-16T19:36:48.842Z,1.30
2023-03-16T19:39:37.058Z,1.27
2023-03-16T19:42:33.648Z,1.37
2023-03-16T19:45:30.217Z,1.30
2023-03-16T19:48:21.211Z,1.20
2023-03-16T19:51:13.314Z,1.30
2023-03-16T19:54:03.025Z,1.17
2023-03-16T19:56:52.598Z,1.40
2023-03-16T19:59:41.733Z,1.00
2023-03-16T20:02:36.381Z,1.33
2023-03-16T20:05:28.106Z,1.10
2023-03-16T20:08:24.337Z,1.20
2023-03-16T20:11:19.546Z,1.43
2023-03-16T20:14:17.531Z,1.30
2023-03-16T20:17:11.063Z,1.23
2023-03-16T20:19:59.323Z,1.20
2023-03-16T20:22:47.695Z,1.40
2023-03-16T20:25:36.242Z,1.70
2023-03-16T20:28:32.608Z,1.33
2023-03-16T20:31:22.727Z,1.60
2023-03-16T20:34:23.000Z,1.47
2023-03-16T20:37:23.908Z,1.40
2023-03-16T20:40:12.840Z,1.33
2023-03-16T20:43:01.200Z,1.30
2023-03-16T20:45:51.163Z,1.30
2023-03-16T20:48:39.500Z,1.30
2023-03-16T20:51:28.823Z,1.40
2023-03-16T20:54:17.761Z,1.70
2023-03-16T20:57:08.025Z,1.30
2023-03-16T20:59:56.587Z,1.37
2023-03-16T21:02:47.772Z,1.40
2023-03-16T21:05:35.950Z,1.30
2023-03-16T21:08:24.585Z,1.37
2023-03-16T21:11:22.100Z,1.20
2023-03-16T21:14:17.036Z,1.33
2023-03-16T21:17:05.287Z,1.20
2023-03-16T21:19:55.239Z,1.43
2023-03-16T21:22:43.870Z,1.27
2023-03-16T21:25:35.721Z,1.30
2023-03-16T21:28:25.309Z,1.30
2023-03-16T21:31:19.752Z,1.30
2023-03-16T21:34:19.181Z,1.33
2023-03-16T21:37:14.533Z,1.40
2023-03-16T21:40:02.789Z,1.57
2023-03-16T21:42:51.153Z,1.50
2023-03-16T21:45:40.152Z,1.50
2023-03-16T21:48:32.538Z,1.60
2023-03-16T21:51:23.204Z,1.37
2023-03-16T21:54:15.591Z,1.43
2023-03-16T21:57:11.058Z,1.27
2023-03-16T21:59:59.305Z,1.50
2023-03-16T22:02:49.677Z,1.40
2023-03-16T22:05:39.453Z,1.80
2023-03-16T22:08:29.669Z,1.90
2023-03-16T22:11:21.470Z,1.73
2023-03-16T22:14:10.081Z,1.90
2023-03-16T22:16:58.476Z,1.70
2023-03-16T22:19:46.984Z,1.70
2023-03-16T22:22:35.330Z,1.70
2023-03-16T22:25:26.493Z,2.10
2023-03-16T22:28:16.181Z,1.73
2023-03-16T22:31:05.320Z,1.80
2023-03-16T22:33:53.960Z,1.60
2023-03-16T22:36:42.930Z,1.60
2023-03-16T22:39:36.199Z,1.50
2023-03-16T22:42:29.037Z,1.77
2023-03-16T22:45:22.697Z,1.77
2023-03-16T22:48:24.891Z,1.50
2023-03-16T22:51:25.025Z,1.90
2023-03-16T22:54:16.924Z,1.90
2023-03-16T22:57:05.687Z,1.63
2023-03-16T22:59:54.324Z,1.80
2023-03-16T23:02:44.959Z,1.73
2023-03-16T23:05:33.221Z,1.87
2023-03-16T23:08:23.585Z,1.73
2023-03-16T23:11:16.807Z,1.90
2023-03-16T23:14:12.781Z,1.90
2023-03-16T23:17:01.143Z,1.60
2023-03-16T23:19:50.759Z,1.67
2023-03-16T23:22:40.929Z,1.70
2023-03-16T23:25:29.265Z,1.80
2023-03-16T23:28:21.602Z,1.70
2023-03-16T23:31:10.965Z,1.70
2023-03-16T23:33:59.238Z,1.80
2023-03-16T23:36:48.974Z,1.90
2023-03-16T23:39:37.169Z,1.70
2023-03-16T23:42:25.395Z,1.93
2023-03-16T23:45:26.137Z,2.10
2023-03-16T23:48:16.928Z,1.60
2023-03-16T23:51:06.309Z,1.87
2023-03-16T23:53:56.393Z,1.90
2023-03-16T23:56:44.674Z,2.03
2023-03-16T23:59:33.208Z,1.90
